6R7 weather

Old Harbor Airport
Old Harbor, Alaska, United States

Public forecast

Using degrees Fahrenheit for public forecast. Weather courtesy of forecast.io.

Closest aviation weather report (METAR) to Old Harbor Airport

Closest report is Akhiok Airport, 34.2 nm (63.3 km) WSW. Retrieved 2020/08/05 14:56 UTC (45 minutes ago):

PAKH 051456Z AUTO CLR A2978 RMK AO2 SLPNO 58007 PWINO FZRANO

Closest aviation forecast (TAF) to Old Harbor Airport

Closest forecast is Kodiak Airport, 40.6 nm (75.2 km) NE. Retrieved 2020/08/05 12:24 UTC (3 hours ago):

TAF PADQ 051120Z 0512/0612 30008KT P6SM FEW250 FM052200 14008KT P6SM SCT050 OVC080 FM060600 13008G15KT 6SM -RA SCT015 OVC025 FM061000 13012G20KT 4SM -RA BR BKN007 OVC015